BIVM

Vestmannaeyjar Airport

Vestmannaeyjar, Iceland

BIVM 221800Z 11020G30KT 1000 FG VV000 09/09 Q0996

Observed Flight Rules
Oct-22 @ 18:00 UTC (12 hours ago)
 
Low Instrument Flight Rules
Wind Visibility Clouds Conditions
110° at 20 knots
 Gusting to 30 knots
998 meters
  • Vertical visibility
  • Fog
Temperatures Readings
Current 9°C / 48°F
Dewpoint 9°C / 48°F
Humidity 100%
Altimeter 29.41" Hg
Pressure 996 hPa
Elevation 124
Observed Flight Rules
Oct-22 @ 18:00 UTC
(12 hours ago)
 
LIFR
Wind Visibility
110° at 20 knots
 Gusting to 30 knots
998 meters
Clouds Conditions
  • Vertical visibility
  • Fog
Temperature Dewpoint
9°C / 48°F 9°C / 48°F
Humidity Altimeter Pressure
100% 29.41" Hg 996 hPa